createdAt,value
2022-09-06T00:01:57.869Z,18.3
2022-09-06T00:13:57.874Z,18.4
2022-09-06T00:25:57.942Z,18.4
2022-09-06T00:37:57.893Z,18.3
2022-09-06T00:49:57.855Z,17.8
2022-09-06T01:01:58.887Z,17.8
2022-09-06T01:13:57.872Z,17.8
2022-09-06T01:25:57.879Z,18.0
2022-09-06T01:37:57.870Z,18.0
2022-09-06T01:49:57.892Z,18.0
2022-09-06T02:01:57.975Z,18.1
2022-09-06T02:13:57.835Z,18.2
2022-09-06T02:25:57.893Z,18.2
2022-09-06T02:37:57.882Z,18.1
2022-09-06T02:49:57.879Z,18.2
2022-09-06T03:01:57.941Z,18.1
2022-09-06T03:13:57.857Z,18.1
2022-09-06T03:25:57.873Z,17.3
2022-09-06T03:37:57.855Z,17.1
2022-09-06T03:49:57.893Z,17.1
2022-09-06T04:01:57.880Z,16.9
2022-09-06T04:13:57.844Z,16.8
2022-09-06T04:25:57.853Z,16.2
2022-09-06T04:37:57.866Z,15.8
2022-09-06T04:49:57.885Z,15.4
2022-09-06T05:01:57.915Z,15.4
2022-09-06T05:13:57.844Z,15.4
2022-09-06T05:25:57.863Z,15.6
2022-09-06T05:37:57.853Z,16.1
2022-09-06T05:49:57.897Z,16.5
2022-09-06T06:01:57.947Z,16.6
2022-09-06T06:13:57.842Z,17.1
2022-09-06T06:25:57.868Z,19.4
2022-09-06T06:37:57.867Z,19.8
2022-09-06T06:49:57.884Z,20.3
2022-09-06T07:01:57.918Z,20.4
2022-09-06T07:13:57.864Z,20.6
2022-09-06T07:25:57.886Z,21.2
2022-09-06T07:37:57.864Z,21.3
2022-09-06T08:01:59.191Z,22.2
2022-09-06T08:13:57.991Z,22.6
2022-09-06T08:25:57.930Z,23.4
2022-09-06T08:37:57.919Z,24.5
2022-09-06T08:49:57.940Z,25.6
2022-09-06T09:01:58.009Z,25.3
2022-09-06T09:13:57.924Z,25.8
2022-09-06T09:25:57.902Z,26.5
2022-09-06T09:38:04.956Z,26.6
2022-09-06T09:49:57.882Z,26.1
2022-09-06T10:01:57.866Z,26.0
2022-09-06T10:13:57.860Z,25.5
2022-09-06T10:25:57.888Z,25.8
2022-09-06T10:37:57.824Z,26.2
2022-09-06T10:49:57.925Z,26.8
2022-09-06T11:01:58.054Z,27.2
2022-09-06T11:14:00.486Z,27.1
2022-09-06T11:25:57.865Z,27.6
2022-09-06T11:37:57.841Z,27.8
2022-09-06T11:49:57.884Z,27.8
2022-09-06T12:01:57.845Z,28.3
2022-09-06T12:13:58.417Z,28.4
2022-09-06T12:25:57.868Z,28.5
2022-09-06T12:37:57.871Z,29.0
2022-09-06T12:49:57.872Z,28.9
2022-09-06T13:01:57.969Z,28.4
2022-09-06T13:13:58.086Z,27.7
2022-09-06T13:25:57.862Z,22.1
2022-09-06T13:37:57.883Z,19.3
2022-09-06T13:49:57.895Z,19.4
2022-09-06T14:01:57.903Z,20.7
2022-09-06T14:13:57.875Z,22.2
2022-09-06T14:25:57.829Z,20.7
2022-09-06T14:37:57.859Z,21.4
2022-09-06T14:49:57.878Z,21.8
2022-09-06T15:01:57.999Z,22.2
2022-09-06T15:13:57.882Z,22.3
2022-09-06T15:25:57.874Z,23.2
2022-09-06T15:37:57.867Z,23.6
2022-09-06T15:49:57.901Z,24.7
2022-09-06T16:01:57.994Z,24.6
2022-09-06T16:13:57.865Z,24.6
2022-09-06T16:25:58.010Z,25.0
2022-09-06T16:37:57.859Z,24.3
2022-09-06T16:49:57.895Z,23.9
2022-09-06T17:01:58.075Z,23.2
2022-09-06T17:13:57.869Z,22.9
2022-09-06T17:25:57.882Z,22.2
2022-09-06T17:37:57.877Z,21.5
2022-09-06T17:49:58.317Z,21.1
2022-09-06T18:01:57.970Z,20.9
2022-09-06T18:13:57.856Z,20.6
2022-09-06T18:25:57.864Z,20.7
2022-09-06T18:37:57.892Z,20.3
2022-09-06T18:49:57.886Z,20.1
2022-09-06T19:01:57.997Z,19.8
2022-09-06T19:13:57.831Z,19.5
2022-09-06T19:25:57.867Z,18.9
2022-09-06T19:37:57.855Z,18.9
2022-09-06T19:49:57.878Z,18.8
2022-09-06T20:01:57.882Z,18.6
2022-09-06T20:13:57.880Z,18.7
2022-09-06T20:25:57.844Z,18.8
2022-09-06T20:37:57.864Z,19.0
2022-09-06T20:49:57.888Z,19.1
2022-09-06T21:01:57.932Z,18.8
2022-09-06T21:13:57.860Z,18.2
2022-09-06T21:25:57.857Z,18.4
2022-09-06T21:37:57.912Z,19.0
2022-09-06T21:49:57.876Z,19.3
2022-09-06T22:01:57.898Z,18.5
2022-09-06T22:13:57.873Z,17.9
2022-09-06T22:25:57.848Z,17.7
2022-09-06T22:37:57.867Z,17.6
2022-09-06T22:49:57.855Z,18.0
2022-09-06T23:01:57.879Z,17.3
2022-09-06T23:13:57.838Z,17.7
2022-09-06T23:25:57.876Z,18.1
2022-09-06T23:37:57.881Z,18.2
2022-09-06T23:49:57.875Z,18.3
